Time;durP1;ratioP1;P1;durP2;ratioP2;P2;SDS_P1;SDS_P2;PMS_P1;PMS_P2;Temp;Humidity;BMP_temperature;BMP_pressure;BME280_temperature;BME280_humidity;BME280_pressure;Samples;Min_cycle;Max_cycle;Signal;HPM_P1;HPM_P2
2023/04/05 00:00:46;;;;;;;0.10;0.10;;;2.60;99.90;;;;;;6243787;22;20080;-91
2023/04/05 00:03:12;;;;;;;0.10;0.10;;;;;;;;;;6245440;22;20020;-93
2023/04/05 00:05:38;;;;;;;0.10;0.10;;;;;;;;;;6246620;22;20012;-92
2023/04/05 00:08:12;;;;;;;0.10;0.10;;;;;;;;;;6245928;22;20023;-95
2023/04/05 00:10:38;;;;;;;0.10;0.10;;;;;;;;;;6245315;22;20062;-92
2023/04/05 00:13:04;;;;;;;0.10;0.10;;;;;;;;;;6246139;22;19997;-93
2023/04/05 00:15:33;;;;;;;0.10;0.10;;;;;;;;;;6244581;22;20003;-94
2023/04/05 00:18:02;;;;;;;0.00;0.00;;;;;;;;;;6245230;22;19993;-94
2023/04/05 00:20:28;;;;;;;0.10;0.10;;;;;;;;;;6245438;22;20011;-94
2023/04/05 00:22:54;;;;;;;0.10;0.10;;;;;;;;;;6245779;22;20015;-94
2023/04/05 00:25:21;;;;;;;0.10;0.10;;;;;;;;;;6245429;22;19996;-94
2023/04/05 00:27:47;;;;;;;0.10;0.10;;;;;;;;;;6246022;22;20004;-93
2023/04/05 00:30:19;;;;;;;0.10;0.10;;;;;;;;;;6242375;22;19988;-94
2023/04/05 00:32:48;;;;;;;0.10;0.10;;;0.90;99.90;;;;;;6246269;22;19996;-94
2023/04/05 00:35:15;;;;;;;0.00;0.00;;;;;;;;;;6244514;22;20052;-94
2023/04/05 00:37:41;;;;;;;0.10;0.10;;;;;;;;;;6246552;22;19996;-94
2023/04/05 00:40:07;;;;;;;0.10;0.10;;;;;;;;;;6245248;22;20003;-94
2023/04/05 00:42:33;;;;;;;0.10;0.10;;;;;;;;;;6245340;22;19996;-94
2023/04/05 00:44:59;;;;;;;0.10;0.10;;;;;;;;;;6245085;22;19993;-93
2023/04/05 00:47:26;;;;;;;0.10;0.10;;;;;;;;;;6246139;22;20024;-94
2023/04/05 00:49:52;;;;;;;0.10;0.10;;;;;;;;;;6245731;22;20007;-94
2023/04/05 00:52:18;;;;;;;0.08;0.08;;;;;;;;;;6245941;22;20019;-94
2023/04/05 00:54:44;;;;;;;0.10;0.10;;;;;;;;;;6245613;22;20043;-94
2023/04/05 00:57:10;;;;;;;0.10;0.10;;;;;;;;;;6245882;22;19996;-93
2023/04/05 00:59:36;;;;;;;0.10;0.10;;;;;;;;;;6245986;22;20023;-93
2023/04/05 01:02:17;;;;;;;0.10;0.10;;;1.40;99.90;;;;;;6245488;22;20039;-94
2023/04/05 01:04:48;;;;;;;;;;;1.30;99.90;;;;;;6245378;22;20059;-93
2023/04/05 01:07:15;;;;;;;0.10;0.10;;;;;;;;;;6245354;22;19915;-93
2023/04/05 01:09:42;;;;;;;0.00;0.00;;;;;;;;;;6245168;22;20003;-94
2023/04/05 01:12:11;;;;;;;0.10;0.10;;;0.90;99.90;;;;;;6244182;22;20027;-95
2023/04/05 01:14:51;;;;;;;0.10;0.10;;;0.90;99.90;;;;;;6244731;22;20027;-94
2023/04/05 01:17:20;;;;;;;0.10;0.10;;;0.90;99.90;;;;;;6245639;22;20000;-94
2023/04/05 01:19:47;;;;;;;0.13;0.13;;;;;;;;;;6245295;22;19992;-94
2023/04/05 01:22:57;;;;;;;0.10;0.10;;;0.70;99.90;;;;;;6245430;22;20000;-95
2023/04/05 01:25:35;;;;;;;;;;;0.80;99.90;;;;;;6246439;22;20032;-94
2023/04/05 01:28:01;;;;;;;0.10;0.10;;;;;;;;;;6244808;22;19933;-94
2023/04/05 01:30:37;;;;;;;0.10;0.10;;;0.60;99.90;;;;;;6245664;22;19996;-94
2023/04/05 01:33:14;;;;;;;0.10;0.10;;;0.40;99.90;;;;;;6246177;22;20174;-94
2023/04/05 01:35:54;;;;;;;0.10;0.10;;;0.40;99.90;;;;;;6243524;22;19996;-93
2023/04/05 01:38:24;;;;;;;0.10;0.10;;;0.50;99.90;;;;;;6244510;22;19997;-94
2023/04/05 01:40:50;;;;;;;0.10;0.10;;;0.50;99.90;;;;;;6246207;22;20002;-93
2023/04/05 01:43:17;;;;;;;0.10;0.10;;;0.50;99.90;;;;;;6244955;22;19996;-94
2023/04/05 01:45:44;;;;;;;0.10;0.10;;;0.60;99.90;;;;;;6243361;22;20028;-93
2023/04/05 01:48:10;;;;;;;0.10;0.10;;;;;;;;;;6244930;22;19989;-96
2023/04/05 01:50:36;;;;;;;0.10;0.10;;;;;;;;;;6245260;22;20002;-94
2023/04/05 01:53:02;;;;;;;0.10;0.10;;;;;;;;;;6246575;22;19988;-93
2023/04/05 01:55:28;;;;;;;0.10;0.10;;;;;;;;;;6245924;22;20004;-96
2023/04/05 01:57:55;;;;;;;0.10;0.10;;;0.40;99.90;;;;;;6245894;22;20016;-94
2023/04/05 02:00:21;;;;;;;0.10;0.10;;;;;;;;;;6245490;22;20024;-94
2023/04/05 02:02:47;;;;;;;0.08;0.08;;;;;;;;;;6245865;22;20000;-96
2023/04/05 02:05:14;;;;;;;0.10;0.10;;;;;;;;;;6245124;22;20024;-95
2023/04/05 02:07:40;;;;;;;0.10;0.10;;;;;;;;;;6246464;22;20026;-93
2023/04/05 02:10:06;;;;;;;0.10;0.10;;;0.50;99.90;;;;;;6244842;22;20000;-95
2023/04/05 02:12:32;;;;;;;0.10;0.10;;;;;;;;;;6246066;22;19993;-96
2023/04/05 02:14:58;;;;;;;0.10;0.10;;;;;;;;;;6245131;22;20001;-95
2023/04/05 02:17:24;;;;;;;0.10;0.10;;;;;;;;;;6246048;22;19992;-96
2023/04/05 02:19:51;;;;;;;0.10;0.10;;;;;;;;;;6244367;22;19992;-92
2023/04/05 02:22:18;;;;;;;0.20;0.20;;;;;;;;;;6247009;22;20053;-95
2023/04/05 02:24:44;;;;;;;0.10;0.10;;;;;;;;;;6247437;22;20056;-94
2023/04/05 02:27:10;;;;;;;0.20;0.20;;;;;;;;;;6247383;22;20010;-94
2023/04/05 02:29:36;;;;;;;0.10;0.10;;;;;;;;;;6247462;22;19992;-95
2023/04/05 02:32:02;;;;;;;0.10;0.10;;;;;;;;;;6247019;22;20016;-96
2023/04/05 02:34:28;;;;;;;0.10;0.10;;;;;;;;;;6247607;22;20111;-95
2023/04/05 02:36:54;;;;;;;0.20;0.20;;;;;;;;;;6247942;22;20004;-96
2023/04/05 02:45:00;;;;;;;0.20;0.20;;;;;;;;;;6274139;22;20035;-94
2023/04/05 02:47:25;;;;;;;0.10;0.10;;;;;;;;;;6247209;22;20050;-95
2023/04/05 02:49:51;;;;;;;0.10;0.10;;;;;;;;;;6246702;22;20003;-95
2023/04/05 02:52:17;;;;;;;0.10;0.10;;;;;;;;;;6247530;22;20016;-95
2023/04/05 02:54:45;;;;;;;0.10;0.10;;;;;;;;;;6247123;22;19989;-94
2023/04/05 02:57:11;;;;;;;0.10;0.10;;;;;;;;;;6248384;22;19996;-94
2023/04/05 02:59:37;;;;;;;0.10;0.10;;;-0.10;99.90;;;;;;6247647;22;19991;-95
2023/04/05 03:02:03;;;;;;;0.10;0.10;;;;;;;;;;6247000;22;19988;-95
2023/04/05 03:04:33;;;;;;;0.10;0.10;;;;;;;;;;6246662;22;19993;-95
2023/04/05 03:06:59;;;;;;;0.10;0.10;;;;;;;;;;6247105;22;20004;-95
2023/04/05 03:09:26;;;;;;;0.10;0.10;;;;;;;;;;6247031;22;20019;-95
2023/04/05 03:11:52;;;;;;;0.10;0.10;;;;;;;;;;6247297;22;20000;-94
2023/04/05 03:14:17;;;;;;;0.20;0.20;;;;;;;;;;6246832;22;19988;-95
2023/04/05 03:19:25;;;;;;;0.10;0.10;;;;;;;;;;6236610;22;20008;-95
2023/04/05 03:32:21;;;;;;;0.10;0.10;;;;;;;;;;6241417;22;20027;-95
2023/04/05 03:34:50;;;;;;;0.10;0.10;;;;;;;;;;6247305;22;19996;-93
2023/04/05 03:37:17;;;;;;;0.10;0.10;;;;;;;;;;6274582;22;20004;-93
2023/04/05 03:39:43;;;;;;;0.10;0.10;;;;;;;;;;6248292;22;20027;-94
2023/04/05 03:42:09;;;;;;;0.10;0.10;;;;;;;;;;6248794;22;19988;-94
2023/04/05 03:44:35;;;;;;;0.10;0.10;;;;;;;;;;6248757;22;19992;-94
2023/04/05 03:52:32;;;;;;;0.10;0.10;;;;;;;;;;6244303;23;20000;-93
2023/04/05 03:55:15;;;;;;;0.10;0.10;;;;;;;;;;6236762;22;20056;-93
2023/04/05 04:22:25;;;;;;;0.10;0.10;;;;;;;;;;6240801;22;20064;-93
2023/04/05 04:47:23;;;;;;;0.10;0.10;;;;;;;;;;6241169;22;20016;-94
2023/04/05 05:03:10;;;;;;;0.10;0.10;;;;;;;;;;6240262;22;20001;-93
2023/04/05 06:06:16;;;;;;;0.10;0.10;;;;;;;;;;6239087;22;20005;-92
2023/04/05 06:20:41;;;;;;;0.10;0.10;;;;;;;;;;6233934;22;20019;-95
2023/04/05 06:23:07;;;;;;;0.20;0.20;;;;;;;;;;6237328;22;20048;-94
2023/04/05 06:25:33;;;;;;;0.10;0.10;;;;;;;;;;6244020;22;19996;-93
2023/04/05 06:28:00;;;;;;;0.10;0.10;;;;;;;;;;6242504;22;20000;-94
2023/04/05 06:30:26;;;;;;;0.10;0.10;;;;;;;;;;6214728;22;20012;-95
2023/04/05 06:32:53;;;;;;;0.10;0.10;;;;;;;;;;6215468;22;20013;-93
2023/04/05 06:35:20;;;;;;;0.10;0.10;;;1.00;99.90;;;;;;6215371;22;20004;-93
2023/04/05 06:37:47;;;;;;;0.10;0.10;;;;;;;;;;6213744;22;20050;-93
2023/04/05 06:40:13;;;;;;;0.10;0.10;;;;;;;;;;6216108;22;20000;-94
2023/04/05 06:45:15;;;;;;;0.10;0.10;;;;;;;;;;6258868;22;20000;-95
2023/04/05 06:47:41;;;;;;;0.10;0.10;;;;;;;;;;6246274;22;19995;-96
2023/04/05 06:50:08;;;;;;;0.10;0.10;;;1.20;99.90;;;;;;6243664;22;19996;-96
2023/04/05 06:52:34;;;;;;;0.10;0.10;;;;;;;;;;6244698;22;19988;-95
2023/04/05 06:55:00;;;;;;;0.10;0.10;;;;;;;;;;6244630;22;19988;-96
2023/04/05 06:57:26;;;;;;;0.00;0.00;;;;;;;;;;6243249;22;19992;-95
2023/04/05 06:59:53;;;;;;;0.10;0.10;;;;;;;;;;6243139;22;20015;-95
2023/04/05 07:02:20;;;;;;;0.00;0.00;;;1.60;99.90;;;;;;6244969;22;20031;-96
2023/04/05 07:04:46;;;;;;;0.10;0.10;;;;;;;;;;6244633;22;19996;-94
2023/04/05 07:07:12;;;;;;;0.10;0.10;;;;;;;;;;6242093;22;20000;-92
2023/04/05 07:09:38;;;;;;;0.10;0.10;;;;;;;;;;6245354;22;19988;-94
2023/04/05 07:12:05;;;;;;;0.10;0.10;;;2.10;99.90;;;;;;6244790;22;20012;-95
2023/04/05 07:14:36;;;;;;;0.10;0.10;;;2.10;99.90;;;;;;6247198;22;19988;-96
2023/04/05 07:17:05;;;;;;;0.10;0.10;;;2.20;99.90;;;;;;6246629;22;20048;-95
2023/04/05 07:19:31;;;;;;;0.10;0.10;;;;;;;;;;6246504;22;19996;-96
2023/04/05 07:21:58;;;;;;;0.10;0.10;;;2.50;99.90;;;;;;6243803;22;20014;-96
2023/04/05 07:24:24;;;;;;;0.08;0.08;;;;;;;;;;6238326;22;20055;-96
2023/04/05 07:26:50;;;;;;;0.08;0.08;;;;;;;;;;6243015;22;20015;-95
2023/04/05 07:29:16;;;;;;;0.10;0.10;;;;;;;;;;6243035;22;20000;-96
2023/04/05 07:31:42;;;;;;;0.05;0.05;;;;;;;;;;6243634;22;20026;-95
2023/04/05 07:34:08;;;;;;;0.00;0.00;;;;;;;;;;6245012;22;19988;-95
2023/04/05 07:36:34;;;;;;;0.00;0.00;;;;;;;;;;6244856;22;20000;-94
2023/04/05 07:39:00;;;;;;;0.10;0.10;;;;;;;;;;6245823;22;19996;-96
2023/04/05 07:41:30;;;;;;;0.08;0.08;;;3.10;99.90;;;;;;6245741;22;19996;-95
2023/04/05 07:43:56;;;;;;;0.10;0.10;;;;;;;;;;6245407;22;20004;-95
2023/04/05 07:46:22;;;;;;;0.10;0.10;;;;;;;;;;6245100;22;20006;-95
2023/04/05 07:48:48;;;;;;;0.10;0.10;;;;;;;;;;6244982;22;20019;-95
2023/04/05 07:51:14;;;;;;;0.10;0.10;;;;;;;;;;6245221;22;20000;-96
2023/04/05 07:53:40;;;;;;;0.08;0.08;;;;;;;;;;6245711;22;20003;-94
2023/04/05 07:56:10;;;;;;;0.10;0.10;;;4.00;99.90;;;;;;6244693;22;20159;-96
2023/04/05 07:58:40;;;;;;;0.10;0.10;;;;;;;;;;6244855;22;20004;-95
2023/04/05 08:01:07;;;;;;;0.00;0.00;;;4.10;99.90;;;;;;6243123;22;20018;-94
2023/04/05 08:03:38;;;;;;;0.10;0.10;;;;;;;;;;6245394;22;20003;-96
2023/04/05 08:06:11;;;;;;;0.10;0.10;;;4.30;99.90;;;;;;6245585;22;20028;-95
2023/04/05 08:08:37;;;;;;;0.10;0.10;;;;;;;;;;6240446;22;20016;-94
2023/04/05 08:11:03;;;;;;;0.10;0.10;;;;;;;;;;6244057;22;19996;-96
2023/04/05 08:13:29;;;;;;;0.03;0.03;;;;;;;;;;6244127;22;20132;-95
2023/04/05 08:15:56;;;;;;;0.00;0.00;;;4.60;99.90;;;;;;6243223;22;20023;-95
2023/04/05 08:18:22;;;;;;;0.10;0.10;;;;;;;;;;6243517;22;20010;-94
2023/04/05 08:20:54;;;;;;;0.00;0.00;;;4.70;99.90;;;;;;6243749;22;19984;-95
2023/04/05 08:23:20;;;;;;;0.00;0.00;;;;;;;;;;6244178;22;19992;-95
2023/04/05 08:25:47;;;;;;;0.00;0.00;;;;;;;;;;6244821;22;20076;-94
2023/04/05 08:28:13;;;;;;;0.10;0.10;;;;;;;;;;6243310;22;19995;-93
2023/04/05 08:30:39;;;;;;;0.10;0.10;;;;;;;;;;6242068;22;20079;-95
2023/04/05 08:33:05;;;;;;;0.10;0.10;;;;;;;;;;6243617;22;19992;-96
2023/04/05 08:35:31;;;;;;;0.10;0.10;;;;;;;;;;6242329;22;19989;-95
2023/04/05 08:37:57;;;;;;;0.10;0.10;;;;;;;;;;6242145;22;20197;-96
2023/04/05 09:06:50;;;;;;;0.10;0.10;;;5.80;91.60;;;;;;6276235;22;20019;-90
2023/04/05 09:10:01;;;;;;;0.10;0.10;;;5.90;91.60;;;;;;6243352;22;20014;-90
2023/04/05 21:24:44;;;;;;;0.10;0.10;;;;;;;;;;6317591;22;20023;-94
2023/04/05 21:27:10;;;;;;;0.05;0.05;;;;;;;;;;6291919;22;20023;-93
2023/04/05 21:29:36;;;;;;;0.10;0.10;;;;;;;;;;6270877;22;19984;-94
2023/04/05 21:32:02;;;;;;;0.10;0.10;;;;;;;;;;6255535;22;20321;-92
2023/04/05 21:34:28;;;;;;;0.10;0.10;;;;;;;;;;6258818;22;20003;-93
2023/04/05 21:36:54;;;;;;;0.00;0.00;;;;;;;;;;6260560;22;20022;-94
2023/04/05 21:39:20;;;;;;;0.10;0.10;;;;;;;;;;6257980;22;20003;-94
2023/04/05 21:41:46;;;;;;;0.10;0.10;;;;;;;;;;6258251;22;20006;-94
2023/04/05 21:44:12;;;;;;;0.10;0.10;;;;;;;;;;6258367;22;20004;-93
2023/04/05 21:46:38;;;;;;;0.00;0.00;;;;;;;;;;6255986;22;20461;-93
2023/04/05 21:49:04;;;;;;;0.10;0.10;;;;;;;;;;6258796;22;20000;-92
2023/04/05 21:51:30;;;;;;;0.10;0.10;;;;;;;;;;6261521;22;19996;-93
2023/04/05 21:53:56;;;;;;;0.10;0.10;;;;;;;;;;6259604;22;20003;-93
2023/04/05 21:56:21;;;;;;;0.10;0.10;;;;;;;;;;6260264;22;20007;-94
2023/04/05 21:58:47;;;;;;;0.10;0.10;;;;;;;;;;6258948;22;20011;-95
2023/04/05 22:01:13;;;;;;;0.10;0.10;;;;;;;;;;6257247;22;20419;-94
2023/04/05 22:03:39;;;;;;;0.10;0.10;;;;;;;;;;6257036;22;20004;-93
2023/04/05 22:06:05;;;;;;;0.10;0.10;;;;;;;;;;6258900;22;20015;-93
2023/04/05 22:08:33;;;;;;;0.10;0.10;;;;;;;;;;6257847;22;20000;-94
2023/04/05 22:10:59;;;;;;;0.00;0.00;;;;;;;;;;6253866;22;20015;-93
2023/04/05 22:13:25;;;;;;;0.10;0.10;;;;;;;;;;6258215;22;20004;-93
2023/04/05 22:15:51;;;;;;;0.10;0.10;;;;;;;;;;6260336;22;20064;-94
2023/04/05 22:18:17;;;;;;;0.10;0.10;;;;;;;;;;6263415;22;20004;-93
2023/04/05 22:20:43;;;;;;;0.10;0.10;;;;;;;;;;6260932;22;20161;-93
2023/04/05 22:23:09;;;;;;;0.10;0.10;;;;;;;;;;6260388;22;20015;-94
2023/04/05 22:25:35;;;;;;;0.10;0.10;;;;;;;;;;6256908;22;20006;-94
2023/04/05 22:28:01;;;;;;;0.10;0.10;;;;;;;;;;6259363;22;20094;-94
2023/04/05 22:30:27;;;;;;;0.10;0.10;;;4.00;97.20;;;;;;6260607;22;20075;-94
2023/04/05 22:32:53;;;;;;;0.08;0.08;;;;;;;;;;6262201;22;20007;-93
2023/04/05 22:35:19;;;;;;;0.10;0.10;;;;;;;;;;6260260;22;20057;-94
2023/04/05 22:37:45;;;;;;;0.10;0.10;;;;;;;;;;6259842;22;20081;-93
2023/04/05 22:40:11;;;;;;;0.00;0.00;;;;;;;;;;6262221;22;20008;-94
2023/04/05 22:42:40;;;;;;;0.00;0.00;;;;;;;;;;6265020;22;20014;-93
2023/04/05 22:45:06;;;;;;;0.10;0.10;;;;;;;;;;6258208;22;20007;-94
2023/04/05 22:47:32;;;;;;;0.10;0.10;;;;;;;;;;6264100;22;20023;-93
2023/04/05 22:49:58;;;;;;;0.10;0.10;;;;;;;;;;6263537;22;20014;-95
2023/04/05 22:52:24;;;;;;;0.10;0.10;;;;;;;;;;6265704;22;20036;-94
2023/04/05 22:54:50;;;;;;;0.10;0.10;;;;;;;;;;6261592;22;20050;-95
2023/04/05 22:57:16;;;;;;;0.10;0.10;;;;;;;;;;6265714;22;20003;-94
2023/04/05 22:59:42;;;;;;;0.10;0.10;;;;;;;;;;6272940;22;20019;-95
2023/04/05 23:02:08;;;;;;;0.10;0.10;;;;;;;;;;6275492;22;20007;-93
2023/04/05 23:04:34;;;;;;;0.17;0.17;;;;;;;;;;6275404;22;19984;-95
2023/04/05 23:07:00;;;;;;;0.00;0.00;;;;;;;;;;6275874;22;19996;-94
2023/04/05 23:09:27;;;;;;;0.10;0.10;;;;;;;;;;6262059;22;20008;-94
2023/04/05 23:11:53;;;;;;;0.10;0.10;;;;;;;;;;6263371;22;20007;-93
2023/04/05 23:14:19;;;;;;;0.00;0.00;;;;;;;;;;6264167;22;20014;-95
2023/04/05 23:16:45;;;;;;;0.10;0.10;;;;;;;;;;6264523;22;20030;-94
2023/04/05 23:19:11;;;;;;;0.10;0.10;;;;;;;;;;6264149;22;20073;-93
2023/04/05 23:21:36;;;;;;;0.10;0.10;;;;;;;;;;6260708;22;20256;-94
2023/04/05 23:24:04;;;;;;;0.10;0.10;;;;;;;;;;6262898;22;20008;-94
2023/04/05 23:26:30;;;;;;;0.10;0.10;;;;;;;;;;6263392;22;20086;-94
2023/04/05 23:28:56;;;;;;;0.10;0.10;;;;;;;;;;6262929;22;20003;-93
2023/04/05 23:31:22;;;;;;;0.10;0.10;;;;;;;;;;6259191;22;20533;-93
2023/04/05 23:33:48;;;;;;;0.10;0.10;;;;;;;;;;6261781;22;20023;-93
2023/04/05 23:36:14;;;;;;;0.05;0.05;;;;;;;;;;6263552;22;20008;-94
2023/04/05 23:38:40;;;;;;;0.10;0.10;;;;;;;;;;6263020;22;20007;-94
2023/04/05 23:41:06;;;;;;;0.10;0.10;;;;;;;;;;6258416;22;20452;-94
2023/04/05 23:43:32;;;;;;;0.10;0.10;;;;;;;;;;6259557;22;20008;-93
2023/04/05 23:45:58;;;;;;;0.10;0.10;;;;;;;;;;6258864;22;20064;-95
2023/04/05 23:48:24;;;;;;;0.03;0.03;;;;;;;;;;6260613;22;19999;-94
2023/04/05 23:50:50;;;;;;;0.00;0.00;;;;;;;;;;6260837;22;20006;-94
2023/04/05 23:53:16;;;;;;;0.10;0.10;;;;;;;;;;6261541;22;20000;-93
2023/04/05 23:55:42;;;;;;;0.10;0.10;;;;;;;;;;6262948;22;19999;-94
2023/04/05 23:58:08;;;;;;;0.10;0.10;;;;;;;;;;6259092;22;20015;-95
